Campbell AAF (Fort Campbell) Air Field
KHOP : now visible

Airfield :











YOU CAN JOIN US ON...

 
LOGIN :

Register | Disclaimer

   EN    FR    IT 

 









Legend :    VFR   Marginal VFR   IFR   Intensive IFR   Very Intensive IFR
Visi :
Ceiling :
>= 8 km
>= 3000ft
5 to 8 km
1000 to 3000 ft
1500m to 5 km
500 to 1000 ft
800 to 1500m
200 to 500 ft
< 800m
< 200 ft
Symbols :   Thunderstorms  Fog  Heavy snow  Heavy precipitations  Wind > 20 kt







- Airport Elevation : 573 ft


KHOP - Campbell AAF (Fort Campbell) Air Field

CURRENT METAR :
  • 201956Z AUTO 19007KT 10SM SCT055 SCT200 31/15 A3016 RMK AO2 SLP210 T03080148

EXPIRED METARs :
  • 201856Z AUTO 13005KT 10SM FEW050 FEW200 31/15 A3017 RMK AO2 SLP213 T03070151
  • 201756Z AUTO 18007KT 10SM CLR 30/14 A3019 RMK AO2 SLP220 T03030144 10306 20217 58008

TAF TAF KHOP
Valid from the 20 at 16:00 until the 21 at 22:00 UTC


201600Z 2016/2122 19006KT 9999 SCT045 SCT140 QNH3017INS
TEMPO 2016/2021 20010G15KT
BECMG 2114/2115 19010G15KT 9999 FEW140 QNH3015INS TX30/2020Z TN19/2112Z
No reported NOTAMs for that airfield.



MET'MAP, your aeronautical weather chart ! - Copyright ORBIFLY December 2007 - Disclaimer

ORBIFLY MET'MAP TEAM :

Programming & Development : Alexandra Zaïnal
Concept & Development : Baudouin d'Aumeries
Co-Development & Prog : Marc-Olivier Méhu
Technical & hardware support : Manuel Goepfert

Contact : metmap@orbifly.com




SOURCES & CREDITS :

   NOAA       Earth
Advisory